EHGG

Eelde Airport

Groningen, The Netherlands
TAF EHGG 211701Z 2118/2224 30015G25KT 9999 SCT040 TEMPO 2118/2206 6000 -SHRA FEW025CB PROB40 TEMPO 2120/2206 31018G35KT 4000 SHRA SCT020CB TEMPO 2206/2216 6000 -SHRA -RADZ FEW025TCU BKN030 BECMG 2218/2221 28010KT
Issued Valid From Valid To
Jun-21 @ 17:01 UTC
(an hour ago)
Jun-21 @ 18:00 UTC
(11 minutes ago)
Jun-23 @ 00:00 UTC
(-1 days ago)
Jun-21 @ 18:00 to Jun-22 @ 18:00
TAF EHGG 211701Z 2118/2224 30015G25KT 9999 SCT040
Wind Visibility Clouds
300° at 15 knots
 Gusting to 25 knots
10,000+ meters
  • Scattered at 4,000' AGL
Temporary Jun-21 @ 18:00 to Jun-22 @ 06:00
TEMPO 2118/2206 6000 -SHRA FEW025CB
Visibility Clouds Conditions
6,003 meters
  • Few at 2,500' AGL
  • Light Rain
Temporary  (Probability 40%) Jun-21 @ 20:00 to Jun-22 @ 06:00
PROB40 TEMPO 2120/2206 31018G35KT 4000 SHRA SCT020CB
Wind Visibility Clouds Conditions
310° at 18 knots
 Gusting to 35 knots
4,007 meters
  • Scattered at 2,000' AGL
  • Rain
Temporary Jun-22 @ 06:00 to Jun-22 @ 16:00
TEMPO 2206/2216 6000 -SHRA -RADZ FEW025TCU BKN030
Visibility Clouds Conditions
6,003 meters
  • Few at 2,500' AGL
  • Broken at 3,000' AGL
  • Light Rain
  • Light Rain
  • Light Drizzle
Becoming Jun-22 @ 18:00 to Jun-23 @ 00:00
BECMG 2218/2221 28010KT
Wind Visibility Clouds
280° at 10 knots 10,000+ meters
  • Scattered at 4,000' AGL
TAF EHGG 211701Z 2118/2224 30015G25KT 9999 SCT040 TEMPO 2118/2206 6000 -SHRA FEW025CB PROB40 TEMPO 2120/2206 31018G35KT 4000 SHRA SCT020CB TEMPO 2206/2216 6000 -SHRA -RADZ FEW025TCU BKN030 BECMG 2218/2221 28010KT
Issued Jun-21 @ 17:01 UTC
(an hour ago)
Valid From Jun-21 @ 18:00 UTC
(11 minutes ago)
Valid To Jun-23 @ 00:00 UTC
(-1 days ago)
Jun-21 @ 18:00 - Jun-22 @ 18:00
Wind Visibility
300° at 15 knots
 Gusting to 25 knots
10,000+ meters
Clouds
  • Scattered at 4,000' AGL
Temporary Jun-21 @ 18:00 - Jun-22 @ 06:00
Clouds
  • Few at 2,500' AGL
Conditions
  • Light Rain
Probability 40% Temporary Jun-21 @ 20:00 - Jun-22 @ 06:00
Wind Visibility
310° at 18 knots
 Gusting to 35 knots
4,007 meters
Clouds
  • Scattered at 2,000' AGL
Conditions
  • Rain
Temporary Jun-22 @ 06:00 - Jun-22 @ 16:00
Clouds
  • Few at 2,500' AGL
  • Broken at 3,000' AGL
Conditions
  • Light Rain
  • Light Rain
  • Light Drizzle
Becoming Jun-22 @ 18:00 - Jun-23 @ 00:00
Wind Visibility
280° at 10 knots 10,000+ meters
Clouds
  • Scattered at 4,000' AGL